createdAt,value
2022-09-22T00:01:54.993Z,57.27
2022-09-22T00:04:21.961Z,56.35
2022-09-22T00:06:51.309Z,55.98
2022-09-22T00:09:19.221Z,56.73
2022-09-22T00:11:47.452Z,57.35
2022-09-22T00:14:15.439Z,56.91
2022-09-22T00:16:44.872Z,56.81
2022-09-22T00:19:13.965Z,56.71
2022-09-22T00:21:40.658Z,55.90
2022-09-22T00:24:08.162Z,55.91
2022-09-22T00:26:35.745Z,56.66
2022-09-22T00:29:02.541Z,56.34
2022-09-22T00:31:29.847Z,56.77
2022-09-22T00:33:57.032Z,56.61
2022-09-22T00:36:25.769Z,56.29
2022-09-22T00:38:52.991Z,56.79
2022-09-22T00:41:30.423Z,56.75
2022-09-22T00:44:15.981Z,56.97
2022-09-22T00:46:43.418Z,57.37
2022-09-22T00:49:10.329Z,56.23
2022-09-22T00:51:37.661Z,56.33
2022-09-22T00:54:05.819Z,57.57
2022-09-22T00:56:50.341Z,56.29
2022-09-22T00:59:19.040Z,57.71
2022-09-22T01:01:45.912Z,56.86
2022-09-22T01:04:12.898Z,56.58
2022-09-22T01:06:40.079Z,56.17
2022-09-22T01:09:07.215Z,56.14
2022-09-22T01:11:34.091Z,56.51
2022-09-22T01:14:16.546Z,56.21
2022-09-22T01:16:55.511Z,57.65
2022-09-22T01:19:33.030Z,57.00
2022-09-22T01:22:16.573Z,56.76
2022-09-22T01:24:43.703Z,56.58
2022-09-22T01:27:22.551Z,57.14
2022-09-22T01:29:55.538Z,57.02
2022-09-22T01:32:28.094Z,56.72
2022-09-22T01:35:09.227Z,56.36
2022-09-22T01:37:56.184Z,56.32
2022-09-22T01:40:46.395Z,56.76
2022-09-22T01:43:36.478Z,57.20
2022-09-22T01:46:05.350Z,56.98
2022-09-22T01:48:32.706Z,56.90
2022-09-22T01:51:08.579Z,56.40
2022-09-22T01:53:42.189Z,56.29
2022-09-22T01:56:09.725Z,56.43
2022-09-22T01:58:46.297Z,56.40
2022-09-22T02:01:17.304Z,56.80
2022-09-22T02:03:52.249Z,56.75
2022-09-22T02:06:20.675Z,56.39
2022-09-22T02:08:47.690Z,57.68
2022-09-22T02:11:16.217Z,58.06
2022-09-22T02:13:43.361Z,57.91
2022-09-22T02:16:12.240Z,56.94
2022-09-22T02:18:42.054Z,56.72
2022-09-22T02:21:09.023Z,57.00
2022-09-22T02:23:36.098Z,58.31
2022-09-22T02:26:03.460Z,57.61
2022-09-22T02:28:31.568Z,57.75
2022-09-22T02:31:19.041Z,58.46
2022-09-22T02:33:45.886Z,58.81
2022-09-22T02:36:17.370Z,57.49
2022-09-22T02:38:53.341Z,57.14
2022-09-22T02:41:26.550Z,58.03
2022-09-22T02:44:07.231Z,58.74
2022-09-22T02:46:39.185Z,58.38
2022-09-22T02:49:07.543Z,57.34
2022-09-22T02:51:35.824Z,57.43
2022-09-22T02:54:03.463Z,57.34
2022-09-22T02:56:30.579Z,57.62
2022-09-22T02:58:58.587Z,56.98
2022-09-22T03:01:25.874Z,58.32
2022-09-22T03:03:52.583Z,57.37
2022-09-22T03:06:19.594Z,57.47
2022-09-22T03:08:46.323Z,57.07
2022-09-22T03:11:13.108Z,57.13
2022-09-22T03:13:40.206Z,57.74
2022-09-22T03:16:07.010Z,58.43
2022-09-22T03:18:33.945Z,57.50
2022-09-22T03:21:00.902Z,57.52
2022-09-22T03:23:27.728Z,57.03
2022-09-22T03:25:54.583Z,57.27
2022-09-22T03:28:21.562Z,57.63
2022-09-22T03:30:48.242Z,57.92
2022-09-22T03:33:14.984Z,58.20
2022-09-22T03:35:42.491Z,57.72
2022-09-22T03:38:09.248Z,57.50
2022-09-22T03:40:36.043Z,57.65
2022-09-22T03:43:03.083Z,57.68
2022-09-22T03:45:29.827Z,58.25
2022-09-22T03:47:56.540Z,57.82
2022-09-22T03:50:23.711Z,58.49
2022-09-22T03:52:50.390Z,58.83
2022-09-22T03:55:17.129Z,58.22
2022-09-22T03:57:44.108Z,58.24
2022-09-22T04:00:11.437Z,57.98
2022-09-22T04:02:38.585Z,58.72
2022-09-22T04:05:05.716Z,58.37
2022-09-22T04:07:32.430Z,58.88
2022-09-22T04:09:59.148Z,59.44
2022-09-22T04:12:26.088Z,59.07
2022-09-22T04:14:52.783Z,58.58
2022-09-22T04:17:20.427Z,59.14
2022-09-22T04:19:47.620Z,59.90
2022-09-22T04:22:14.600Z,59.56
2022-09-22T04:24:41.560Z,58.22
2022-09-22T04:27:19.494Z,58.88
2022-09-22T04:29:47.371Z,58.24
2022-09-22T04:32:14.657Z,58.22
2022-09-22T04:34:41.533Z,57.87
2022-09-22T04:37:08.230Z,58.13
2022-09-22T04:39:35.500Z,57.81
2022-09-22T04:42:02.476Z,58.86
2022-09-22T04:44:32.199Z,59.45
2022-09-22T04:47:01.928Z,58.83
2022-09-22T04:49:28.598Z,59.55
2022-09-22T04:51:55.767Z,59.99
2022-09-22T04:54:22.823Z,59.07
2022-09-22T04:56:49.574Z,59.85
2022-09-22T04:59:16.245Z,58.78
2022-09-22T05:01:43.256Z,58.01
2022-09-22T05:04:09.988Z,59.04
2022-09-22T05:06:36.669Z,59.60
2022-09-22T05:09:03.787Z,58.63
2022-09-22T05:11:31.334Z,58.76
2022-09-22T05:13:58.740Z,59.05
2022-09-22T05:16:26.053Z,59.17
2022-09-22T05:18:52.971Z,58.72
2022-09-22T05:21:19.844Z,58.42
2022-09-22T05:23:47.014Z,59.50
2022-09-22T05:26:13.854Z,58.74
2022-09-22T05:28:40.942Z,58.55
2022-09-22T05:31:08.141Z,58.53
2022-09-22T05:33:34.913Z,57.77
2022-09-22T05:36:01.764Z,57.87
2022-09-22T05:38:28.993Z,58.52
2022-09-22T05:40:55.677Z,59.18
2022-09-22T05:43:22.319Z,58.96
2022-09-22T05:45:49.919Z,59.12
2022-09-22T05:48:16.696Z,58.95
2022-09-22T05:50:43.842Z,59.69
2022-09-22T05:53:10.996Z,59.60
2022-09-22T05:55:38.184Z,58.32
2022-09-22T05:58:04.986Z,58.23
2022-09-22T06:00:32.146Z,59.14
2022-09-22T06:02:59.152Z,59.24
2022-09-22T06:05:25.949Z,59.44
2022-09-22T06:07:56.535Z,59.88
2022-09-22T06:10:23.574Z,59.92
2022-09-22T06:12:50.283Z,59.67
2022-09-22T06:15:17.030Z,59.42
2022-09-22T06:17:44.003Z,58.75
2022-09-22T06:20:10.752Z,59.77
2022-09-22T06:22:37.453Z,58.75
2022-09-22T06:25:04.606Z,58.70
2022-09-22T06:27:31.328Z,59.45
2022-09-22T06:29:58.890Z,58.66
2022-09-22T06:32:25.992Z,57.55
2022-09-22T06:34:52.782Z,58.56
2022-09-22T06:37:20.341Z,57.70
2022-09-22T06:39:47.292Z,58.43
2022-09-22T06:42:17.077Z,58.32
2022-09-22T06:44:45.015Z,58.59
2022-09-22T06:47:12.468Z,59.77
2022-09-22T06:49:39.249Z,58.29
2022-09-22T06:52:06.947Z,57.41
2022-09-22T06:54:33.938Z,57.04
2022-09-22T06:57:00.708Z,58.30
2022-09-22T06:59:27.637Z,57.34
2022-09-22T07:01:54.639Z,54.39
2022-09-22T07:04:23.242Z,54.26
2022-09-22T07:06:50.439Z,53.78
2022-09-22T07:09:17.416Z,52.07
2022-09-22T07:11:44.350Z,50.57
2022-09-22T07:14:12.548Z,50.75
2022-09-22T07:16:40.955Z,51.06
2022-09-22T07:19:08.159Z,50.10
2022-09-22T07:21:37.616Z,49.24
2022-09-22T07:24:05.243Z,47.64
2022-09-22T07:26:33.056Z,48.71
2022-09-22T07:29:00.705Z,48.20
2022-09-22T07:31:29.123Z,46.37
2022-09-22T07:33:56.079Z,48.68
2022-09-22T07:36:23.871Z,46.23
2022-09-22T07:38:51.519Z,47.05
2022-09-22T07:41:19.011Z,45.50
2022-09-22T07:43:45.693Z,45.80
2022-09-22T07:46:13.310Z,47.47
2022-09-22T07:48:45.677Z,45.02
2022-09-22T07:51:16.496Z,45.03
2022-09-22T07:53:43.616Z,45.25
2022-09-22T07:56:12.385Z,44.86
2022-09-22T07:58:41.305Z,46.38
2022-09-22T08:01:11.367Z,45.85
2022-09-22T08:03:39.271Z,45.36
2022-09-22T08:06:12.253Z,44.89
2022-09-22T08:08:40.081Z,43.15
2022-09-22T08:11:07.228Z,42.21
2022-09-22T08:13:34.780Z,42.06
2022-09-22T08:16:03.891Z,43.19
2022-09-22T08:18:31.066Z,42.88
2022-09-22T08:20:58.222Z,42.67
2022-09-22T08:23:25.167Z,42.08
2022-09-22T08:25:51.829Z,43.10
2022-09-22T08:28:18.601Z,43.90
2022-09-22T08:30:48.796Z,43.59
2022-09-22T08:33:15.490Z,41.54
2022-09-22T08:35:55.008Z,41.80
2022-09-22T08:38:23.225Z,41.66
2022-09-22T08:40:56.413Z,42.53
2022-09-22T08:43:23.388Z,44.07
2022-09-22T08:45:50.055Z,41.03
2022-09-22T08:48:37.116Z,41.83
2022-09-22T08:51:34.067Z,39.59
2022-09-22T08:54:03.569Z,39.78
2022-09-22T08:56:44.495Z,37.99
2022-09-22T08:59:23.580Z,40.92
2022-09-22T09:02:09.421Z,39.55
2022-09-22T09:05:00.543Z,38.23
2022-09-22T09:07:39.600Z,38.35
2022-09-22T09:10:25.207Z,41.40
2022-09-22T09:12:58.998Z,39.03
2022-09-22T09:15:25.666Z,40.27
2022-09-22T09:17:52.612Z,40.33
2022-09-22T09:20:21.839Z,38.95
2022-09-22T09:22:55.725Z,43.14
2022-09-22T09:25:52.466Z,39.98
2022-09-22T09:28:24.064Z,41.93
2022-09-22T09:30:54.561Z,40.22
2022-09-22T09:33:24.108Z,36.42
2022-09-22T09:35:53.382Z,38.19
2022-09-22T09:38:28.393Z,36.60
2022-09-22T09:41:18.040Z,38.15
2022-09-22T09:43:45.537Z,39.33
2022-09-22T09:46:14.996Z,36.29
2022-09-22T09:48:48.514Z,37.32
2022-09-22T09:51:15.504Z,41.32
2022-09-22T09:53:43.654Z,41.43
2022-09-22T09:56:16.947Z,41.75
2022-09-22T09:59:15.070Z,41.14
2022-09-22T10:01:42.362Z,37.58
2022-09-22T10:04:17.686Z,41.90
2022-09-22T10:06:45.079Z,40.58
2022-09-22T10:09:12.985Z,42.70
2022-09-22T10:11:39.660Z,41.76
2022-09-22T10:14:08.831Z,40.42
2022-09-22T10:16:36.280Z,40.33
2022-09-22T10:19:16.962Z,41.15
2022-09-22T10:21:43.893Z,43.20
2022-09-22T10:24:31.702Z,40.41
2022-09-22T10:27:00.376Z,41.52
2022-09-22T10:29:30.356Z,43.96
2022-09-22T10:32:02.580Z,42.36
2022-09-22T10:34:39.506Z,43.23
2022-09-22T10:37:10.488Z,38.53
2022-09-22T10:39:53.630Z,36.44
2022-09-22T10:42:20.350Z,40.74
2022-09-22T10:44:49.028Z,37.15
2022-09-22T10:47:42.358Z,38.17
2022-09-22T10:50:09.254Z,35.81
2022-09-22T10:52:41.326Z,35.64
2022-09-22T10:55:20.477Z,38.32
2022-09-22T10:57:59.734Z,37.50
2022-09-22T11:00:26.739Z,34.90
2022-09-22T11:02:56.799Z,37.10
2022-09-22T11:05:48.193Z,36.85
2022-09-22T11:08:37.002Z,36.28
2022-09-22T11:11:39.483Z,36.18
2022-09-22T11:14:17.462Z,33.73
2022-09-22T11:16:47.150Z,35.08
2022-09-22T11:19:19.185Z,32.80
2022-09-22T11:21:52.031Z,33.64
2022-09-22T11:24:19.166Z,36.90
2022-09-22T11:26:47.579Z,35.80
2022-09-22T11:29:29.968Z,34.40
2022-09-22T11:32:04.899Z,34.05
2022-09-22T11:34:50.348Z,36.26
2022-09-22T11:37:27.663Z,38.56
2022-09-22T11:40:13.295Z,36.22
2022-09-22T11:43:04.501Z,36.60
2022-09-22T11:45:34.528Z,33.98
2022-09-22T11:48:01.520Z,33.90
2022-09-22T11:50:49.254Z,33.66
2022-09-22T11:53:20.961Z,36.52
2022-09-22T11:55:55.161Z,34.43
2022-09-22T11:58:22.601Z,33.84
2022-09-22T12:01:00.592Z,34.59
2022-09-22T12:03:32.630Z,35.94
2022-09-22T12:06:01.889Z,35.72
2022-09-22T12:08:33.914Z,34.85
2022-09-22T12:11:00.563Z,35.86
2022-09-22T12:13:28.148Z,35.23
2022-09-22T12:15:58.861Z,36.40
2022-09-22T12:18:28.284Z,38.09
2022-09-22T12:20:59.783Z,39.29
2022-09-22T12:23:34.486Z,38.81
2022-09-22T12:26:02.929Z,36.76
2022-09-22T12:28:30.288Z,39.35
2022-09-22T12:31:06.345Z,38.67
2022-09-22T12:33:34.084Z,39.92
2022-09-22T12:36:01.376Z,37.90
2022-09-22T12:38:30.490Z,40.08
2022-09-22T12:40:59.847Z,39.27
2022-09-22T12:43:26.786Z,39.43
2022-09-22T12:45:53.703Z,40.50
2022-09-22T12:48:22.356Z,39.65
2022-09-22T12:50:49.882Z,38.45
2022-09-22T12:53:22.906Z,39.08
2022-09-22T12:55:50.826Z,40.75
2022-09-22T12:58:20.727Z,41.08
2022-09-22T13:00:47.981Z,41.60
2022-09-22T13:03:27.061Z,40.21
2022-09-22T13:05:56.749Z,40.01
2022-09-22T13:08:24.964Z,40.39
2022-09-22T13:10:52.741Z,40.57
2022-09-22T13:13:22.553Z,41.31
2022-09-22T13:15:49.967Z,40.98
2022-09-22T13:18:35.660Z,40.36
2022-09-22T13:21:11.880Z,40.86
2022-09-22T13:23:38.934Z,40.81
2022-09-22T13:26:06.777Z,40.29
2022-09-22T13:28:33.530Z,41.24
2022-09-22T13:31:06.292Z,41.73
2022-09-22T13:33:34.293Z,42.29
2022-09-22T13:36:07.169Z,42.96
2022-09-22T13:38:41.093Z,43.16
2022-09-22T13:41:16.404Z,42.86
2022-09-22T13:43:44.538Z,43.57
2022-09-22T13:46:22.101Z,41.50
2022-09-22T13:48:49.351Z,42.17
2022-09-22T13:51:16.982Z,42.23
2022-09-22T13:53:45.091Z,41.65
2022-09-22T13:56:16.916Z,42.64
2022-09-22T13:58:46.182Z,42.12
2022-09-22T14:01:23.013Z,43.27
2022-09-22T14:03:50.702Z,41.89
2022-09-22T14:06:18.634Z,40.50
2022-09-22T14:08:46.165Z,40.84
2022-09-22T14:11:15.205Z,41.68
2022-09-22T14:14:00.716Z,41.71
2022-09-22T14:16:47.672Z,41.39
2022-09-22T14:19:19.570Z,41.73
2022-09-22T14:21:49.700Z,41.71
2022-09-22T14:24:16.801Z,42.10
2022-09-22T14:26:50.181Z,42.04
2022-09-22T14:29:18.421Z,42.74
2022-09-22T14:31:46.663Z,43.02
2022-09-22T14:34:39.778Z,44.15
2022-09-22T14:37:16.834Z,43.98
2022-09-22T14:39:43.766Z,44.60
2022-09-22T14:42:16.647Z,44.43
2022-09-22T14:44:50.291Z,44.07
2022-09-22T14:47:20.626Z,44.31
2022-09-22T14:49:48.314Z,45.78
2022-09-22T14:52:20.832Z,42.62
2022-09-22T14:54:47.770Z,42.51
2022-09-22T14:57:15.030Z,41.72
2022-09-22T15:00:00.584Z,42.31
2022-09-22T15:02:33.847Z,39.93
2022-09-22T15:05:03.601Z,41.80
2022-09-22T15:07:31.785Z,39.57
2022-09-22T15:10:03.729Z,41.56
2022-09-22T15:12:36.251Z,41.76
2022-09-22T15:15:03.137Z,41.84
2022-09-22T15:17:58.794Z,42.15
2022-09-22T15:20:46.254Z,41.81
2022-09-22T15:23:14.225Z,45.79
2022-09-22T15:25:41.648Z,49.48
2022-09-22T15:28:11.224Z,48.66
2022-09-22T15:30:38.349Z,51.85
2022-09-22T15:33:06.853Z,52.13
2022-09-22T15:35:37.942Z,52.27
2022-09-22T15:38:06.934Z,51.39
2022-09-22T15:40:33.752Z,51.88
2022-09-22T15:43:12.824Z,52.58
2022-09-22T15:45:50.277Z,52.76
2022-09-22T15:48:27.461Z,56.32
2022-09-22T15:50:55.162Z,53.47
2022-09-22T15:53:23.137Z,53.67
2022-09-22T15:55:54.209Z,54.49
2022-09-22T15:58:23.177Z,55.26
2022-09-22T16:00:51.249Z,56.29
2022-09-22T16:03:22.757Z,56.04
2022-09-22T16:05:56.786Z,55.65
2022-09-22T16:08:28.185Z,57.30
2022-09-22T16:10:58.694Z,56.55
2022-09-22T16:13:26.910Z,56.46
2022-09-22T16:15:54.899Z,56.42
2022-09-22T16:18:21.771Z,58.52
2022-09-22T16:20:51.681Z,57.84
2022-09-22T16:23:19.285Z,56.87
2022-09-22T16:25:46.541Z,56.99
2022-09-22T16:28:13.883Z,62.25
2022-09-22T16:30:41.209Z,61.52
2022-09-22T16:33:07.902Z,62.25
2022-09-22T16:35:34.833Z,60.32
2022-09-22T16:38:01.629Z,64.61
2022-09-22T16:40:29.562Z,64.52
2022-09-22T16:42:57.711Z,61.08
2022-09-22T16:45:43.137Z,60.02
2022-09-22T16:48:10.079Z,59.22
2022-09-22T16:50:37.041Z,62.07
2022-09-22T16:53:07.189Z,63.03
2022-09-22T16:55:37.307Z,61.24
2022-09-22T16:58:07.293Z,60.46
2022-09-22T17:00:34.338Z,59.96
2022-09-22T17:03:01.081Z,60.10
2022-09-22T17:05:28.013Z,59.74
2022-09-22T17:07:55.229Z,59.93
2022-09-22T17:10:22.025Z,59.40
2022-09-22T17:12:48.941Z,58.90
2022-09-22T17:15:16.572Z,58.81
2022-09-22T17:17:43.652Z,59.82
2022-09-22T17:20:10.559Z,58.76
2022-09-22T17:22:37.595Z,58.60
2022-09-22T17:25:04.508Z,58.84
2022-09-22T17:27:31.175Z,59.33
2022-09-22T17:29:59.191Z,59.00
2022-09-22T17:32:28.151Z,59.49
2022-09-22T17:34:54.910Z,59.09
2022-09-22T17:37:22.221Z,58.95
2022-09-22T17:39:49.172Z,59.52
2022-09-22T17:42:15.992Z,58.86
2022-09-22T17:44:43.047Z,58.85
2022-09-22T17:47:28.223Z,58.51
2022-09-22T17:50:13.753Z,58.56
2022-09-22T17:52:59.294Z,58.32
2022-09-22T17:55:26.415Z,58.47
2022-09-22T17:57:54.465Z,58.37
2022-09-22T18:00:21.856Z,57.45
2022-09-22T18:02:52.644Z,58.53
2022-09-22T18:05:20.479Z,56.76
2022-09-22T18:07:50.527Z,57.39
2022-09-22T18:10:20.612Z,57.47
2022-09-22T18:12:47.323Z,57.50
2022-09-22T18:15:15.026Z,58.51
2022-09-22T18:17:42.618Z,57.48
2022-09-22T18:20:12.504Z,56.68
2022-09-22T18:22:40.151Z,58.20
2022-09-22T18:25:08.907Z,58.38
2022-09-22T18:27:35.795Z,58.39
2022-09-22T18:30:05.090Z,56.92
2022-09-22T18:32:35.050Z,57.85
2022-09-22T18:35:02.616Z,57.91
2022-09-22T18:37:29.790Z,56.46
2022-09-22T18:39:57.674Z,57.34
2022-09-22T18:42:24.561Z,58.33
2022-09-22T18:44:51.928Z,57.36
2022-09-22T18:47:20.439Z,56.80
2022-09-22T18:49:51.298Z,57.69
2022-09-22T18:52:23.928Z,57.71
2022-09-22T18:54:53.293Z,57.32
2022-09-22T18:57:20.911Z,57.26
2022-09-22T18:59:51.235Z,57.16
2022-09-22T19:02:21.735Z,57.59
2022-09-22T19:04:48.861Z,58.00
2022-09-22T19:07:37.758Z,57.55
2022-09-22T19:10:11.470Z,56.54
2022-09-22T19:12:46.443Z,57.69
2022-09-22T19:15:16.138Z,58.46
2022-09-22T19:17:46.406Z,56.98
2022-09-22T19:20:14.993Z,57.63
2022-09-22T19:22:42.360Z,57.71
2022-09-22T19:25:09.955Z,56.84
2022-09-22T19:27:38.728Z,57.43
2022-09-22T19:30:06.027Z,58.10
2022-09-22T19:32:32.874Z,58.02
2022-09-22T19:34:59.855Z,57.12
2022-09-22T19:37:27.919Z,57.39
2022-09-22T19:39:54.703Z,58.33
2022-09-22T19:42:22.273Z,58.00
2022-09-22T19:44:49.056Z,56.98
2022-09-22T19:47:16.198Z,56.63
2022-09-22T19:49:43.734Z,56.87
2022-09-22T19:52:11.373Z,56.67
2022-09-22T19:54:38.178Z,54.47
2022-09-22T19:57:05.207Z,54.97
2022-09-22T19:59:31.910Z,55.60
2022-09-22T20:01:58.704Z,57.22
2022-09-22T20:04:25.707Z,56.27
2022-09-22T20:06:52.449Z,55.87
2022-09-22T20:09:19.177Z,55.74
2022-09-22T20:11:47.335Z,56.13
2022-09-22T20:14:20.163Z,55.77
2022-09-22T20:16:47.763Z,56.61
2022-09-22T20:19:14.658Z,56.88
2022-09-22T20:21:45.289Z,57.51
2022-09-22T20:24:13.687Z,57.18
2022-09-22T20:26:41.578Z,57.41
2022-09-22T20:29:08.687Z,57.67
2022-09-22T20:31:36.376Z,56.97
2022-09-22T20:34:05.488Z,56.22
2022-09-22T20:36:36.657Z,57.63
2022-09-22T20:39:04.609Z,58.18
2022-09-22T20:41:32.245Z,58.01
2022-09-22T20:44:00.423Z,57.53
2022-09-22T20:46:27.823Z,57.94
2022-09-22T20:48:56.718Z,57.65
2022-09-22T20:51:23.644Z,58.11
2022-09-22T20:53:50.659Z,56.64
2022-09-22T20:56:18.019Z,57.16
2022-09-22T20:58:45.585Z,57.97
2022-09-22T21:01:13.794Z,56.88
2022-09-22T21:03:40.714Z,57.36
2022-09-22T21:06:11.015Z,57.61
2022-09-22T21:08:57.309Z,57.19
2022-09-22T21:11:24.848Z,57.36
2022-09-22T21:13:56.631Z,57.96
2022-09-22T21:16:23.501Z,56.73
2022-09-22T21:18:51.769Z,57.19
2022-09-22T21:21:19.769Z,56.97
2022-09-22T21:23:48.393Z,57.09
2022-09-22T21:26:16.014Z,57.28
2022-09-22T21:28:43.118Z,57.59
2022-09-22T21:31:10.097Z,58.31
2022-09-22T21:33:37.532Z,57.17
2022-09-22T21:36:13.747Z,57.96
2022-09-22T21:38:43.977Z,58.49
2022-09-22T21:41:12.088Z,58.31
2022-09-22T21:43:38.713Z,57.23
2022-09-22T21:46:06.714Z,57.82
2022-09-22T21:48:36.316Z,57.41
2022-09-22T21:51:10.199Z,57.64
2022-09-22T21:53:37.899Z,57.39
2022-09-22T21:56:05.865Z,56.84
2022-09-22T21:58:33.433Z,56.79
2022-09-22T22:01:04.725Z,57.10
2022-09-22T22:03:31.840Z,57.11
2022-09-22T22:06:05.250Z,57.79
2022-09-22T22:08:37.033Z,57.55
2022-09-22T22:11:06.089Z,57.58
2022-09-22T22:13:34.246Z,56.03
2022-09-22T22:16:01.126Z,56.68
2022-09-22T22:18:28.132Z,56.01
2022-09-22T22:21:08.819Z,56.04
2022-09-22T22:23:37.047Z,56.09
2022-09-22T22:26:07.250Z,58.06
2022-09-22T22:28:34.288Z,57.62
2022-09-22T22:31:04.928Z,56.80
2022-09-22T22:33:32.526Z,56.96
2022-09-22T22:35:59.379Z,59.15
2022-09-22T22:38:26.466Z,58.14
2022-09-22T22:40:53.435Z,57.98
2022-09-22T22:43:20.102Z,55.75
2022-09-22T22:45:47.347Z,55.94
2022-09-22T22:48:15.238Z,57.26
2022-09-22T22:50:42.346Z,57.58
2022-09-22T22:53:17.299Z,57.68
2022-09-22T22:55:54.966Z,57.48
2022-09-22T22:58:22.146Z,57.26
2022-09-22T23:00:49.289Z,58.03
2022-09-22T23:03:16.023Z,58.37
2022-09-22T23:05:43.574Z,57.67
2022-09-22T23:08:10.545Z,56.90
2022-09-22T23:10:37.247Z,56.91
2022-09-22T23:13:03.966Z,58.75
2022-09-22T23:15:30.955Z,57.88
2022-09-22T23:17:58.346Z,57.56
2022-09-22T23:20:25.936Z,57.28
2022-09-22T23:22:52.899Z,56.11
2022-09-22T23:25:19.961Z,56.45
2022-09-22T23:27:48.086Z,56.59
2022-09-22T23:30:16.451Z,56.23
2022-09-22T23:32:43.741Z,56.21
2022-09-22T23:35:10.396Z,55.89
2022-09-22T23:37:37.343Z,55.83
2022-09-22T23:40:04.386Z,56.01
2022-09-22T23:42:31.292Z,56.85
2022-09-22T23:44:58.186Z,57.24
2022-09-22T23:47:24.803Z,57.12
2022-09-22T23:49:51.444Z,57.21
2022-09-22T23:52:22.463Z,56.25
2022-09-22T23:54:49.152Z,57.38
2022-09-22T23:57:15.874Z,57.39
2022-09-22T23:59:42.824Z,57.84
